sensor_id;sensor_type;location;lat;lon;timestamp;P1;durP1;ratioP1;P2;durP2;ratioP2
73321;SDS011;61549;37.044;22.128;2022-10-31T00:02:23;2.60;;;2.10;;
73321;SDS011;61549;37.044;22.128;2022-10-31T00:04:49;3.38;;;2.20;;
73321;SDS011;61549;37.044;22.128;2022-10-31T00:07:15;2.80;;;2.15;;
73321;SDS011;61549;37.044;22.128;2022-10-31T00:09:42;2.88;;;2.00;;
73321;SDS011;61549;37.044;22.128;2022-10-31T00:12:08;3.10;;;2.30;;
73321;SDS011;61549;37.044;22.128;2022-10-31T00:14:34;4.80;;;2.20;;
73321;SDS011;61549;37.044;22.128;2022-10-31T00:17:00;3.95;;;2.30;;
73321;SDS011;61549;37.044;22.128;2022-10-31T00:19:28;3.35;;;1.90;;
73321;SDS011;61549;37.044;22.128;2022-10-31T00:21:53;2.45;;;2.10;;
73321;SDS011;61549;37.044;22.128;2022-10-31T00:24:19;4.13;;;2.30;;
73321;SDS011;61549;37.044;22.128;2022-10-31T00:26:45;3.70;;;2.15;;
73321;SDS011;61549;37.044;22.128;2022-10-31T00:29:11;3.40;;;2.20;;
73321;SDS011;61549;37.044;22.128;2022-10-31T00:31:37;3.63;;;2.17;;
73321;SDS011;61549;37.044;22.128;2022-10-31T00:34:03;2.95;;;2.20;;
73321;SDS011;61549;37.044;22.128;2022-10-31T00:36:29;3.40;;;2.10;;
73321;SDS011;61549;37.044;22.128;2022-10-31T00:38:55;3.75;;;2.35;;
73321;SDS011;61549;37.044;22.128;2022-10-31T00:41:23;3.50;;;2.20;;
73321;SDS011;61549;37.044;22.128;2022-10-31T00:43:48;3.35;;;2.25;;
73321;SDS011;61549;37.044;22.128;2022-10-31T00:46:14;2.90;;;2.30;;
73321;SDS011;61549;37.044;22.128;2022-10-31T00:48:41;3.70;;;2.08;;
73321;SDS011;61549;37.044;22.128;2022-10-31T00:51:07;3.42;;;2.25;;
73321;SDS011;61549;37.044;22.128;2022-10-31T00:53:34;3.03;;;2.20;;
73321;SDS011;61549;37.044;22.128;2022-10-31T00:55:59;3.58;;;2.28;;
73321;SDS011;61549;37.044;22.128;2022-10-31T00:58:25;3.05;;;1.95;;
73321;SDS011;61549;37.044;22.128;2022-10-31T01:00:52;4.00;;;2.30;;
73321;SDS011;61549;37.044;22.128;2022-10-31T01:03:24;3.50;;;1.88;;
73321;SDS011;61549;37.044;22.128;2022-10-31T01:05:59;2.83;;;2.22;;
73321;SDS011;61549;37.044;22.128;2022-10-31T01:08:27;2.70;;;2.10;;
73321;SDS011;61549;37.044;22.128;2022-10-31T01:11:04;2.50;;;2.00;;
73321;SDS011;61549;37.044;22.128;2022-10-31T01:13:47;3.83;;;2.33;;
73321;SDS011;61549;37.044;22.128;2022-10-31T01:16:17;2.72;;;2.10;;
73321;SDS011;61549;37.044;22.128;2022-10-31T01:18:44;2.75;;;1.80;;
73321;SDS011;61549;37.044;22.128;2022-10-31T01:21:12;2.85;;;2.30;;
73321;SDS011;61549;37.044;22.128;2022-10-31T01:23:40;2.92;;;2.00;;
73321;SDS011;61549;37.044;22.128;2022-10-31T01:26:10;2.63;;;1.98;;
73321;SDS011;61549;37.044;22.128;2022-10-31T01:28:48;2.58;;;2.00;;
73321;SDS011;61549;37.044;22.128;2022-10-31T01:31:16;2.78;;;2.15;;
73321;SDS011;61549;37.044;22.128;2022-10-31T01:33:43;2.33;;;2.08;;
73321;SDS011;61549;37.044;22.128;2022-10-31T01:36:11;2.85;;;2.30;;
73321;SDS011;61549;37.044;22.128;2022-10-31T01:38:38;4.57;;;2.33;;
73321;SDS011;61549;37.044;22.128;2022-10-31T01:41:04;2.55;;;2.05;;
73321;SDS011;61549;37.044;22.128;2022-10-31T01:46:22;2.58;;;2.20;;
73321;SDS011;61549;37.044;22.128;2022-10-31T01:48:55;4.28;;;2.40;;
73321;SDS011;61549;37.044;22.128;2022-10-31T01:51:26;2.30;;;2.10;;
73321;SDS011;61549;37.044;22.128;2022-10-31T01:53:55;3.15;;;2.35;;
73321;SDS011;61549;37.044;22.128;2022-10-31T01:56:24;3.15;;;2.40;;
73321;SDS011;61549;37.044;22.128;2022-10-31T01:58:51;4.10;;;2.55;;
73321;SDS011;61549;37.044;22.128;2022-10-31T02:01:18;3.42;;;2.45;;
73321;SDS011;61549;37.044;22.128;2022-10-31T02:03:44;2.88;;;2.40;;
73321;SDS011;61549;37.044;22.128;2022-10-31T02:06:26;3.97;;;2.28;;
73321;SDS011;61549;37.044;22.128;2022-10-31T02:08:58;3.25;;;1.98;;
73321;SDS011;61549;37.044;22.128;2022-10-31T02:11:27;3.20;;;2.40;;
73321;SDS011;61549;37.044;22.128;2022-10-31T02:13:54;3.15;;;2.25;;
73321;SDS011;61549;37.044;22.128;2022-10-31T02:16:20;3.17;;;2.20;;
73321;SDS011;61549;37.044;22.128;2022-10-31T02:18:46;2.58;;;2.10;;
73321;SDS011;61549;37.044;22.128;2022-10-31T02:21:17;2.75;;;2.15;;
73321;SDS011;61549;37.044;22.128;2022-10-31T02:34:37;4.03;;;2.33;;
73321;SDS011;61549;37.044;22.128;2022-10-31T02:37:09;2.95;;;2.20;;
73321;SDS011;61549;37.044;22.128;2022-10-31T02:42:38;5.43;;;2.50;;
73321;SDS011;61549;37.044;22.128;2022-10-31T02:45:16;3.22;;;2.40;;
73321;SDS011;61549;37.044;22.128;2022-10-31T02:47:53;3.65;;;2.40;;
73321;SDS011;61549;37.044;22.128;2022-10-31T02:50:25;2.85;;;2.30;;
73321;SDS011;61549;37.044;22.128;2022-10-31T02:52:53;2.97;;;2.25;;
73321;SDS011;61549;37.044;22.128;2022-10-31T02:57:48;3.08;;;2.22;;
73321;SDS011;61549;37.044;22.128;2022-10-31T03:00:16;2.92;;;2.10;;
73321;SDS011;61549;37.044;22.128;2022-10-31T03:10:51;3.40;;;2.10;;
73321;SDS011;61549;37.044;22.128;2022-10-31T03:15:51;3.30;;;2.08;;
73321;SDS011;61549;37.044;22.128;2022-10-31T03:18:32;3.15;;;2.10;;
73321;SDS011;61549;37.044;22.128;2022-10-31T03:23:32;4.28;;;2.13;;
73321;SDS011;61549;37.044;22.128;2022-10-31T03:26:01;3.13;;;2.22;;
73321;SDS011;61549;37.044;22.128;2022-10-31T03:28:42;3.78;;;2.05;;
73321;SDS011;61549;37.044;22.128;2022-10-31T03:31:18;4.70;;;2.20;;
73321;SDS011;61549;37.044;22.128;2022-10-31T03:33:46;3.47;;;2.30;;
73321;SDS011;61549;37.044;22.128;2022-10-31T03:36:16;3.55;;;2.13;;
73321;SDS011;61549;37.044;22.128;2022-10-31T03:38:44;4.53;;;2.00;;
73321;SDS011;61549;37.044;22.128;2022-10-31T03:41:13;4.80;;;2.40;;
73321;SDS011;61549;37.044;22.128;2022-10-31T03:43:47;3.33;;;2.00;;
73321;SDS011;61549;37.044;22.128;2022-10-31T03:46:20;3.28;;;2.00;;
73321;SDS011;61549;37.044;22.128;2022-10-31T03:48:48;3.35;;;1.88;;
73321;SDS011;61549;37.044;22.128;2022-10-31T03:51:20;2.50;;;1.90;;
73321;SDS011;61549;37.044;22.128;2022-10-31T03:54:30;4.25;;;1.90;;
73321;SDS011;61549;37.044;22.128;2022-10-31T03:57:15;3.42;;;2.13;;
73321;SDS011;61549;37.044;22.128;2022-10-31T03:59:58;2.45;;;2.13;;
73321;SDS011;61549;37.044;22.128;2022-10-31T04:02:31;4.18;;;2.22;;
73321;SDS011;61549;37.044;22.128;2022-10-31T04:04:59;2.80;;;1.80;;
73321;SDS011;61549;37.044;22.128;2022-10-31T04:07:27;2.97;;;2.10;;
73321;SDS011;61549;37.044;22.128;2022-10-31T04:09:57;3.20;;;1.90;;
73321;SDS011;61549;37.044;22.128;2022-10-31T04:12:25;4.53;;;2.00;;
73321;SDS011;61549;37.044;22.128;2022-10-31T04:14:52;3.85;;;1.90;;
73321;SDS011;61549;37.044;22.128;2022-10-31T04:17:19;2.65;;;1.83;;
73321;SDS011;61549;37.044;22.128;2022-10-31T04:19:47;3.65;;;2.03;;
73321;SDS011;61549;37.044;22.128;2022-10-31T04:22:13;2.75;;;1.80;;
73321;SDS011;61549;37.044;22.128;2022-10-31T04:24:40;2.80;;;1.73;;
73321;SDS011;61549;37.044;22.128;2022-10-31T04:27:06;3.35;;;2.00;;
73321;SDS011;61549;37.044;22.128;2022-10-31T04:29:32;4.25;;;2.00;;
73321;SDS011;61549;37.044;22.128;2022-10-31T04:31:58;2.45;;;1.95;;
73321;SDS011;61549;37.044;22.128;2022-10-31T04:34:23;4.30;;;2.20;;
73321;SDS011;61549;37.044;22.128;2022-10-31T04:36:49;3.60;;;2.08;;
73321;SDS011;61549;37.044;22.128;2022-10-31T04:39:15;2.78;;;1.88;;
73321;SDS011;61549;37.044;22.128;2022-10-31T04:41:41;2.78;;;1.80;;
73321;SDS011;61549;37.044;22.128;2022-10-31T04:44:07;2.70;;;1.75;;
73321;SDS011;61549;37.044;22.128;2022-10-31T04:46:33;2.63;;;1.92;;
73321;SDS011;61549;37.044;22.128;2022-10-31T04:48:58;5.90;;;2.03;;
73321;SDS011;61549;37.044;22.128;2022-10-31T04:51:24;2.90;;;1.80;;
73321;SDS011;61549;37.044;22.128;2022-10-31T04:53:50;2.97;;;1.60;;
73321;SDS011;61549;37.044;22.128;2022-10-31T04:56:16;4.72;;;1.90;;
73321;SDS011;61549;37.044;22.128;2022-10-31T04:58:42;5.38;;;1.75;;
73321;SDS011;61549;37.044;22.128;2022-10-31T05:01:07;4.00;;;2.13;;
73321;SDS011;61549;37.044;22.128;2022-10-31T05:03:33;3.55;;;2.10;;
73321;SDS011;61549;37.044;22.128;2022-10-31T05:06:00;1.98;;;1.70;;
73321;SDS011;61549;37.044;22.128;2022-10-31T05:08:26;3.17;;;1.70;;
73321;SDS011;61549;37.044;22.128;2022-10-31T05:10:52;3.53;;;1.75;;
73321;SDS011;61549;37.044;22.128;2022-10-31T05:13:18;2.58;;;1.60;;
73321;SDS011;61549;37.044;22.128;2022-10-31T05:15:43;3.72;;;1.77;;
73321;SDS011;61549;37.044;22.128;2022-10-31T05:18:09;4.45;;;1.75;;
73321;SDS011;61549;37.044;22.128;2022-10-31T05:20:35;4.05;;;1.90;;
73321;SDS011;61549;37.044;22.128;2022-10-31T05:23:01;2.17;;;1.55;;
73321;SDS011;61549;37.044;22.128;2022-10-31T05:25:27;2.20;;;1.58;;
73321;SDS011;61549;37.044;22.128;2022-10-31T05:27:54;3.03;;;1.88;;
73321;SDS011;61549;37.044;22.128;2022-10-31T05:30:24;2.22;;;1.63;;
73321;SDS011;61549;37.044;22.128;2022-10-31T05:32:54;2.85;;;1.70;;
73321;SDS011;61549;37.044;22.128;2022-10-31T05:35:22;2.10;;;1.75;;
73321;SDS011;61549;37.044;22.128;2022-10-31T05:37:49;5.90;;;1.98;;
73321;SDS011;61549;37.044;22.128;2022-10-31T05:40:16;2.58;;;2.05;;
73321;SDS011;61549;37.044;22.128;2022-10-31T05:42:42;3.80;;;1.58;;
73321;SDS011;61549;37.044;22.128;2022-10-31T05:45:10;3.42;;;1.60;;
73321;SDS011;61549;37.044;22.128;2022-10-31T05:47:40;4.63;;;1.50;;
73321;SDS011;61549;37.044;22.128;2022-10-31T05:50:06;3.83;;;2.20;;
73321;SDS011;61549;37.044;22.128;2022-10-31T05:52:33;3.88;;;1.90;;
73321;SDS011;61549;37.044;22.128;2022-10-31T05:54:59;4.28;;;1.77;;
73321;SDS011;61549;37.044;22.128;2022-10-31T05:57:25;3.88;;;1.88;;
73321;SDS011;61549;37.044;22.128;2022-10-31T05:59:50;3.03;;;2.10;;
73321;SDS011;61549;37.044;22.128;2022-10-31T06:02:20;5.35;;;2.67;;
73321;SDS011;61549;37.044;22.128;2022-10-31T06:04:46;5.40;;;2.38;;
73321;SDS011;61549;37.044;22.128;2022-10-31T06:07:12;4.75;;;2.28;;
73321;SDS011;61549;37.044;22.128;2022-10-31T06:09:38;2.97;;;2.08;;
73321;SDS011;61549;37.044;22.128;2022-10-31T06:12:04;3.95;;;2.05;;
73321;SDS011;61549;37.044;22.128;2022-10-31T06:14:31;5.07;;;2.05;;
73321;SDS011;61549;37.044;22.128;2022-10-31T06:16:58;4.50;;;2.03;;
73321;SDS011;61549;37.044;22.128;2022-10-31T06:19:25;4.03;;;1.77;;
73321;SDS011;61549;37.044;22.128;2022-10-31T06:21:51;4.65;;;3.20;;
73321;SDS011;61549;37.044;22.128;2022-10-31T06:24:17;4.55;;;2.45;;
73321;SDS011;61549;37.044;22.128;2022-10-31T06:26:42;3.63;;;2.13;;
73321;SDS011;61549;37.044;22.128;2022-10-31T06:29:08;3.30;;;1.75;;
73321;SDS011;61549;37.044;22.128;2022-10-31T06:31:34;3.53;;;2.10;;
73321;SDS011;61549;37.044;22.128;2022-10-31T06:34:00;2.92;;;1.98;;
73321;SDS011;61549;37.044;22.128;2022-10-31T06:36:26;4.00;;;2.40;;
73321;SDS011;61549;37.044;22.128;2022-10-31T06:38:51;3.33;;;1.92;;
73321;SDS011;61549;37.044;22.128;2022-10-31T06:41:17;2.33;;;1.90;;
73321;SDS011;61549;37.044;22.128;2022-10-31T06:43:45;2.75;;;1.70;;
73321;SDS011;61549;37.044;22.128;2022-10-31T06:46:13;3.70;;;1.80;;
73321;SDS011;61549;37.044;22.128;2022-10-31T06:48:42;2.30;;;1.63;;
73321;SDS011;61549;37.044;22.128;2022-10-31T06:51:09;3.05;;;1.90;;
73321;SDS011;61549;37.044;22.128;2022-10-31T06:53:35;3.88;;;1.92;;
73321;SDS011;61549;37.044;22.128;2022-10-31T06:56:02;5.95;;;2.22;;
73321;SDS011;61549;37.044;22.128;2022-10-31T06:58:28;5.82;;;3.00;;
73321;SDS011;61549;37.044;22.128;2022-10-31T07:00:55;3.25;;;1.90;;
73321;SDS011;61549;37.044;22.128;2022-10-31T07:03:23;3.30;;;1.70;;
73321;SDS011;61549;37.044;22.128;2022-10-31T07:05:49;3.25;;;1.75;;
73321;SDS011;61549;37.044;22.128;2022-10-31T07:08:15;5.38;;;2.13;;
73321;SDS011;61549;37.044;22.128;2022-10-31T07:10:41;4.00;;;2.35;;
73321;SDS011;61549;37.044;22.128;2022-10-31T07:13:10;4.03;;;2.40;;
73321;SDS011;61549;37.044;22.128;2022-10-31T07:15:38;4.13;;;2.60;;
73321;SDS011;61549;37.044;22.128;2022-10-31T07:18:06;3.40;;;2.30;;
73321;SDS011;61549;37.044;22.128;2022-10-31T07:20:34;4.80;;;2.78;;
73321;SDS011;61549;37.044;22.128;2022-10-31T07:23:00;3.85;;;2.72;;
73321;SDS011;61549;37.044;22.128;2022-10-31T07:25:26;6.65;;;2.63;;
73321;SDS011;61549;37.044;22.128;2022-10-31T07:27:53;6.50;;;3.35;;
73321;SDS011;61549;37.044;22.128;2022-10-31T07:30:19;4.20;;;3.20;;
73321;SDS011;61549;37.044;22.128;2022-10-31T07:32:46;4.82;;;3.10;;
73321;SDS011;61549;37.044;22.128;2022-10-31T07:35:14;5.43;;;3.22;;
73321;SDS011;61549;37.044;22.128;2022-10-31T07:37:48;5.65;;;3.20;;
73321;SDS011;61549;37.044;22.128;2022-10-31T07:40:15;4.90;;;2.60;;
73321;SDS011;61549;37.044;22.128;2022-10-31T07:42:44;3.75;;;2.75;;
73321;SDS011;61549;37.044;22.128;2022-10-31T07:45:13;6.35;;;2.90;;
73321;SDS011;61549;37.044;22.128;2022-10-31T07:47:41;5.40;;;2.72;;
73321;SDS011;61549;37.044;22.128;2022-10-31T07:50:09;4.55;;;2.53;;
73321;SDS011;61549;37.044;22.128;2022-10-31T07:52:39;5.40;;;3.13;;
73321;SDS011;61549;37.044;22.128;2022-10-31T07:55:06;4.70;;;2.90;;
73321;SDS011;61549;37.044;22.128;2022-10-31T07:57:32;4.07;;;3.03;;
73321;SDS011;61549;37.044;22.128;2022-10-31T07:59:58;4.82;;;3.00;;
73321;SDS011;61549;37.044;22.128;2022-10-31T08:02:24;4.57;;;2.80;;
73321;SDS011;61549;37.044;22.128;2022-10-31T08:04:51;3.63;;;2.50;;
73321;SDS011;61549;37.044;22.128;2022-10-31T08:07:17;5.03;;;2.70;;
73321;SDS011;61549;37.044;22.128;2022-10-31T08:09:43;3.15;;;2.65;;
73321;SDS011;61549;37.044;22.128;2022-10-31T08:12:09;4.75;;;2.53;;
73321;SDS011;61549;37.044;22.128;2022-10-31T08:14:35;4.47;;;2.53;;
73321;SDS011;61549;37.044;22.128;2022-10-31T08:17:00;4.97;;;2.60;;
73321;SDS011;61549;37.044;22.128;2022-10-31T08:19:26;3.55;;;2.35;;
73321;SDS011;61549;37.044;22.128;2022-10-31T08:21:52;2.70;;;2.30;;
73321;SDS011;61549;37.044;22.128;2022-10-31T08:24:21;4.03;;;2.70;;
73321;SDS011;61549;37.044;22.128;2022-10-31T08:26:47;5.53;;;2.95;;
73321;SDS011;61549;37.044;22.128;2022-10-31T08:29:15;5.57;;;3.47;;
73321;SDS011;61549;37.044;22.128;2022-10-31T08:31:42;8.60;;;4.97;;
73321;SDS011;61549;37.044;22.128;2022-10-31T08:34:08;8.20;;;4.80;;
73321;SDS011;61549;37.044;22.128;2022-10-31T08:36:34;5.85;;;4.20;;
73321;SDS011;61549;37.044;22.128;2022-10-31T08:39:00;6.90;;;4.13;;
73321;SDS011;61549;37.044;22.128;2022-10-31T08:41:26;8.57;;;3.97;;
73321;SDS011;61549;37.044;22.128;2022-10-31T08:43:52;5.95;;;3.88;;
73321;SDS011;61549;37.044;22.128;2022-10-31T08:46:18;7.72;;;3.70;;
73321;SDS011;61549;37.044;22.128;2022-10-31T08:48:44;5.47;;;3.70;;
73321;SDS011;61549;37.044;22.128;2022-10-31T08:53:55;3.83;;;2.38;;
73321;SDS011;61549;37.044;22.128;2022-10-31T08:56:21;4.75;;;2.83;;
73321;SDS011;61549;37.044;22.128;2022-10-31T08:58:47;6.43;;;2.75;;
73321;SDS011;61549;37.044;22.128;2022-10-31T09:01:13;5.50;;;2.80;;
73321;SDS011;61549;37.044;22.128;2022-10-31T09:03:39;3.00;;;2.38;;
73321;SDS011;61549;37.044;22.128;2022-10-31T09:06:05;4.60;;;2.40;;
73321;SDS011;61549;37.044;22.128;2022-10-31T09:08:34;3.33;;;2.40;;
73321;SDS011;61549;37.044;22.128;2022-10-31T09:11:00;3.17;;;2.30;;
73321;SDS011;61549;37.044;22.128;2022-10-31T09:13:26;4.25;;;2.58;;
73321;SDS011;61549;37.044;22.128;2022-10-31T09:15:52;4.35;;;2.60;;
73321;SDS011;61549;37.044;22.128;2022-10-31T09:18:19;3.13;;;2.40;;
73321;SDS011;61549;37.044;22.128;2022-10-31T09:20:47;5.85;;;2.30;;
73321;SDS011;61549;37.044;22.128;2022-10-31T09:23:16;2.28;;;2.05;;
73321;SDS011;61549;37.044;22.128;2022-10-31T09:25:44;3.95;;;2.38;;
73321;SDS011;61549;37.044;22.128;2022-10-31T09:28:11;3.10;;;2.15;;
73321;SDS011;61549;37.044;22.128;2022-10-31T09:30:39;3.20;;;2.30;;
73321;SDS011;61549;37.044;22.128;2022-10-31T09:33:12;3.60;;;2.30;;
73321;SDS011;61549;37.044;22.128;2022-10-31T09:35:39;3.00;;;2.15;;
73321;SDS011;61549;37.044;22.128;2022-10-31T09:38:17;3.40;;;2.30;;
73321;SDS011;61549;37.044;22.128;2022-10-31T09:40:54;2.00;;;1.80;;
73321;SDS011;61549;37.044;22.128;2022-10-31T09:51:55;3.55;;;2.00;;
73321;SDS011;61549;37.044;22.128;2022-10-31T09:54:41;4.57;;;2.45;;
73321;SDS011;61549;37.044;22.128;2022-10-31T09:57:30;2.88;;;2.00;;
73321;SDS011;61549;37.044;22.128;2022-10-31T10:00:01;4.03;;;2.30;;
73321;SDS011;61549;37.044;22.128;2022-10-31T10:02:32;2.50;;;2.10;;
73321;SDS011;61549;37.044;22.128;2022-10-31T10:05:28;3.10;;;1.97;;
73321;SDS011;61549;37.044;22.128;2022-10-31T10:08:18;3.75;;;2.08;;
73321;SDS011;61549;37.044;22.128;2022-10-31T10:10:50;2.78;;;2.13;;
73321;SDS011;61549;37.044;22.128;2022-10-31T10:24:12;3.22;;;2.30;;
73321;SDS011;61549;37.044;22.128;2022-10-31T10:27:05;2.85;;;2.17;;
73321;SDS011;61549;37.044;22.128;2022-10-31T10:32:37;2.90;;;2.10;;
73321;SDS011;61549;37.044;22.128;2022-10-31T10:35:17;2.50;;;2.03;;
73321;SDS011;61549;37.044;22.128;2022-10-31T10:37:55;2.20;;;2.00;;
73321;SDS011;61549;37.044;22.128;2022-10-31T10:40:41;3.70;;;2.10;;
73321;SDS011;61549;37.044;22.128;2022-10-31T10:43:50;3.00;;;2.05;;
73321;SDS011;61549;37.044;22.128;2022-10-31T10:46:08;3.38;;;2.10;;
73321;SDS011;61549;37.044;22.128;2022-10-31T10:49:16;4.05;;;2.22;;
73321;SDS011;61549;37.044;22.128;2022-10-31T10:54:45;4.10;;;2.20;;
73321;SDS011;61549;37.044;22.128;2022-10-31T10:59:47;3.75;;;2.00;;
73321;SDS011;61549;37.044;22.128;2022-10-31T11:02:17;2.58;;;2.05;;
73321;SDS011;61549;37.044;22.128;2022-10-31T11:04:52;4.20;;;2.15;;
73321;SDS011;61549;37.044;22.128;2022-10-31T11:07:23;3.58;;;2.10;;
73321;SDS011;61549;37.044;22.128;2022-10-31T11:09:49;3.65;;;2.08;;
73321;SDS011;61549;37.044;22.128;2022-10-31T11:12:32;3.65;;;1.90;;
73321;SDS011;61549;37.044;22.128;2022-10-31T11:15:00;3.38;;;2.17;;
73321;SDS011;61549;37.044;22.128;2022-10-31T11:17:34;3.72;;;2.10;;
73321;SDS011;61549;37.044;22.128;2022-10-31T11:22:43;3.22;;;2.10;;
73321;SDS011;61549;37.044;22.128;2022-10-31T11:27:45;2.75;;;2.33;;
73321;SDS011;61549;37.044;22.128;2022-10-31T11:30:12;3.30;;;1.90;;
73321;SDS011;61549;37.044;22.128;2022-10-31T11:32:57;2.92;;;2.17;;
73321;SDS011;61549;37.044;22.128;2022-10-31T11:35:23;2.65;;;2.10;;
73321;SDS011;61549;37.044;22.128;2022-10-31T11:37:51;3.15;;;1.98;;
73321;SDS011;61549;37.044;22.128;2022-10-31T11:40:21;3.65;;;2.10;;
73321;SDS011;61549;37.044;22.128;2022-10-31T11:42:49;2.72;;;1.88;;
73321;SDS011;61549;37.044;22.128;2022-10-31T11:45:27;2.42;;;1.80;;
73321;SDS011;61549;37.044;22.128;2022-10-31T11:47:56;2.35;;;1.90;;
73321;SDS011;61549;37.044;22.128;2022-10-31T11:50:27;2.60;;;2.10;;
73321;SDS011;61549;37.044;22.128;2022-10-31T11:52:57;2.42;;;2.10;;
73321;SDS011;61549;37.044;22.128;2022-10-31T11:58:00;3.72;;;1.98;;
73321;SDS011;61549;37.044;22.128;2022-10-31T12:00:28;2.20;;;1.80;;
73321;SDS011;61549;37.044;22.128;2022-10-31T12:05:40;2.90;;;1.95;;
73321;SDS011;61549;37.044;22.128;2022-10-31T12:08:11;2.90;;;1.67;;
73321;SDS011;61549;37.044;22.128;2022-10-31T12:10:51;3.67;;;2.00;;
73321;SDS011;61549;37.044;22.128;2022-10-31T12:16:18;2.80;;;2.30;;
73321;SDS011;61549;37.044;22.128;2022-10-31T12:21:26;4.40;;;2.30;;
73321;SDS011;61549;37.044;22.128;2022-10-31T12:24:23;3.13;;;1.88;;
73321;SDS011;61549;37.044;22.128;2022-10-31T12:27:00;3.15;;;2.10;;
73321;SDS011;61549;37.044;22.128;2022-10-31T12:29:45;2.05;;;1.80;;
73321;SDS011;61549;37.044;22.128;2022-10-31T12:32:49;3.17;;;1.98;;
73321;SDS011;61549;37.044;22.128;2022-10-31T12:41:22;2.88;;;1.80;;
73321;SDS011;61549;37.044;22.128;2022-10-31T12:47:05;2.83;;;2.10;;
73321;SDS011;61549;37.044;22.128;2022-10-31T13:00:57;3.00;;;2.00;;
73321;SDS011;61549;37.044;22.128;2022-10-31T13:06:54;2.97;;;2.13;;
73321;SDS011;61549;37.044;22.128;2022-10-31T13:09:28;4.95;;;2.35;;
73321;SDS011;61549;37.044;22.128;2022-10-31T13:12:02;2.90;;;2.37;;
73321;SDS011;61549;37.044;22.128;2022-10-31T13:14:35;2.88;;;2.20;;
73321;SDS011;61549;37.044;22.128;2022-10-31T13:17:17;3.22;;;2.45;;
73321;SDS011;61549;37.044;22.128;2022-10-31T13:20:02;3.08;;;2.30;;
73321;SDS011;61549;37.044;22.128;2022-10-31T13:22:37;2.38;;;2.17;;
73321;SDS011;61549;37.044;22.128;2022-10-31T13:25:14;2.60;;;2.00;;
73321;SDS011;61549;37.044;22.128;2022-10-31T13:27:49;4.50;;;2.28;;
73321;SDS011;61549;37.044;22.128;2022-10-31T13:30:22;3.55;;;2.10;;
73321;SDS011;61549;37.044;22.128;2022-10-31T13:38:42;4.97;;;2.40;;
73321;SDS011;61549;37.044;22.128;2022-10-31T13:41:31;3.25;;;2.10;;
73321;SDS011;61549;37.044;22.128;2022-10-31T13:46:45;3.92;;;2.50;;
73321;SDS011;61549;37.044;22.128;2022-10-31T13:54:37;4.25;;;2.20;;
73321;SDS011;61549;37.044;22.128;2022-10-31T13:57:27;3.42;;;2.30;;
73321;SDS011;61549;37.044;22.128;2022-10-31T14:02:49;3.28;;;2.03;;
73321;SDS011;61549;37.044;22.128;2022-10-31T14:05:23;2.97;;;2.10;;
73321;SDS011;61549;37.044;22.128;2022-10-31T14:07:59;3.13;;;2.13;;
73321;SDS011;61549;37.044;22.128;2022-10-31T14:15:54;2.17;;;1.92;;
73321;SDS011;61549;37.044;22.128;2022-10-31T14:18:33;3.72;;;2.35;;
73321;SDS011;61549;37.044;22.128;2022-10-31T14:21:13;3.25;;;2.13;;
73321;SDS011;61549;37.044;22.128;2022-10-31T14:23:59;2.95;;;2.17;;
73321;SDS011;61549;37.044;22.128;2022-10-31T14:28:52;3.20;;;2.17;;
73321;SDS011;61549;37.044;22.128;2022-10-31T14:31:38;3.85;;;2.17;;
73321;SDS011;61549;37.044;22.128;2022-10-31T14:50:41;3.28;;;2.60;;
73321;SDS011;61549;37.044;22.128;2022-10-31T14:53:27;2.50;;;2.22;;
73321;SDS011;61549;37.044;22.128;2022-10-31T14:55:57;4.40;;;2.10;;
73321;SDS011;61549;37.044;22.128;2022-10-31T14:58:35;4.57;;;2.10;;
73321;SDS011;61549;37.044;22.128;2022-10-31T15:01:27;3.47;;;2.25;;
73321;SDS011;61549;37.044;22.128;2022-10-31T15:04:04;3.95;;;2.63;;
73321;SDS011;61549;37.044;22.128;2022-10-31T15:06:48;3.60;;;2.40;;
73321;SDS011;61549;37.044;22.128;2022-10-31T15:09:23;4.72;;;2.50;;
73321;SDS011;61549;37.044;22.128;2022-10-31T15:12:00;4.97;;;2.83;;
73321;SDS011;61549;37.044;22.128;2022-10-31T15:14:44;5.40;;;2.90;;
73321;SDS011;61549;37.044;22.128;2022-10-31T15:17:10;4.10;;;2.83;;
73321;SDS011;61549;37.044;22.128;2022-10-31T15:19:37;7.95;;;3.50;;
73321;SDS011;61549;37.044;22.128;2022-10-31T15:22:04;6.15;;;2.90;;
73321;SDS011;61549;37.044;22.128;2022-10-31T15:24:34;10.65;;;3.50;;
73321;SDS011;61549;37.044;22.128;2022-10-31T15:27:02;5.30;;;2.90;;
73321;SDS011;61549;37.044;22.128;2022-10-31T15:29:28;5.07;;;2.85;;
73321;SDS011;61549;37.044;22.128;2022-10-31T15:31:56;6.78;;;3.10;;
73321;SDS011;61549;37.044;22.128;2022-10-31T15:34:37;5.50;;;3.03;;
73321;SDS011;61549;37.044;22.128;2022-10-31T15:37:11;4.47;;;3.05;;
73321;SDS011;61549;37.044;22.128;2022-10-31T15:39:39;5.28;;;3.20;;
73321;SDS011;61549;37.044;22.128;2022-10-31T15:42:05;6.88;;;3.08;;
73321;SDS011;61549;37.044;22.128;2022-10-31T15:44:40;7.50;;;3.40;;
73321;SDS011;61549;37.044;22.128;2022-10-31T15:47:22;6.65;;;3.25;;
73321;SDS011;61549;37.044;22.128;2022-10-31T15:56:29;4.93;;;2.80;;
73321;SDS011;61549;37.044;22.128;2022-10-31T15:58:57;4.10;;;2.90;;
73321;SDS011;61549;37.044;22.128;2022-10-31T16:01:29;3.67;;;2.90;;
73321;SDS011;61549;37.044;22.128;2022-10-31T16:04:00;6.45;;;3.10;;
73321;SDS011;61549;37.044;22.128;2022-10-31T16:06:30;4.72;;;3.08;;
73321;SDS011;61549;37.044;22.128;2022-10-31T16:08:57;4.80;;;3.20;;
73321;SDS011;61549;37.044;22.128;2022-10-31T16:11:34;5.15;;;3.00;;
73321;SDS011;61549;37.044;22.128;2022-10-31T16:14:05;4.72;;;2.88;;
73321;SDS011;61549;37.044;22.128;2022-10-31T16:16:40;6.22;;;3.33;;
73321;SDS011;61549;37.044;22.128;2022-10-31T16:19:14;6.70;;;3.05;;
73321;SDS011;61549;37.044;22.128;2022-10-31T16:21:53;5.75;;;3.22;;
73321;SDS011;61549;37.044;22.128;2022-10-31T16:24:31;4.70;;;2.75;;
73321;SDS011;61549;37.044;22.128;2022-10-31T16:27:17;3.25;;;2.95;;
73321;SDS011;61549;37.044;22.128;2022-10-31T16:29:53;5.43;;;2.85;;
73321;SDS011;61549;37.044;22.128;2022-10-31T16:35:36;5.72;;;3.13;;
73321;SDS011;61549;37.044;22.128;2022-10-31T16:38:10;5.65;;;3.35;;
73321;SDS011;61549;37.044;22.128;2022-10-31T16:40:40;4.95;;;3.00;;
73321;SDS011;61549;37.044;22.128;2022-10-31T16:43:13;4.50;;;3.40;;
73321;SDS011;61549;37.044;22.128;2022-10-31T16:45:42;5.53;;;3.40;;
73321;SDS011;61549;37.044;22.128;2022-10-31T16:48:14;3.08;;;2.70;;
73321;SDS011;61549;37.044;22.128;2022-10-31T16:50:43;5.18;;;3.22;;
73321;SDS011;61549;37.044;22.128;2022-10-31T16:53:09;4.97;;;2.92;;
73321;SDS011;61549;37.044;22.128;2022-10-31T16:55:41;3.08;;;2.47;;
73321;SDS011;61549;37.044;22.128;2022-10-31T16:58:18;3.58;;;2.80;;
73321;SDS011;61549;37.044;22.128;2022-10-31T17:00:47;3.92;;;2.80;;
73321;SDS011;61549;37.044;22.128;2022-10-31T17:03:13;4.38;;;3.08;;
73321;SDS011;61549;37.044;22.128;2022-10-31T17:05:39;5.78;;;3.05;;
73321;SDS011;61549;37.044;22.128;2022-10-31T17:08:05;5.47;;;2.75;;
73321;SDS011;61549;37.044;22.128;2022-10-31T17:10:31;5.25;;;2.95;;
73321;SDS011;61549;37.044;22.128;2022-10-31T17:13:01;7.05;;;3.30;;
73321;SDS011;61549;37.044;22.128;2022-10-31T17:15:30;5.57;;;3.13;;
73321;SDS011;61549;37.044;22.128;2022-10-31T17:18:17;4.20;;;2.83;;
73321;SDS011;61549;37.044;22.128;2022-10-31T17:20:43;4.15;;;3.15;;
73321;SDS011;61549;37.044;22.128;2022-10-31T17:23:10;6.07;;;3.40;;
73321;SDS011;61549;37.044;22.128;2022-10-31T17:25:38;3.17;;;2.78;;
73321;SDS011;61549;37.044;22.128;2022-10-31T17:28:04;3.67;;;2.80;;